createdAt,value
2023-02-11T00:02:45.483Z,-1.69
2023-02-11T00:13:07.919Z,-1.75
2023-02-11T00:23:29.188Z,-1.79
2023-02-11T00:33:51.346Z,-1.88
2023-02-11T00:44:12.682Z,-1.87
2023-02-11T00:54:34.480Z,-1.81
2023-02-11T03:27:43.236Z,-1.44
2023-02-11T03:38:22.504Z,-1.43
2023-02-11T03:48:59.617Z,-1.39
2023-02-11T03:59:21.439Z,-1.38
2023-02-11T04:09:43.096Z,-1.36
2023-02-11T04:20:04.591Z,-1.33
2023-02-11T04:30:26.238Z,-1.33
2023-02-11T04:40:47.798Z,-1.33
2023-02-11T04:51:09.670Z,-1.34
2023-02-11T05:01:31.354Z,-1.38
2023-02-11T05:11:53.678Z,-1.36
2023-02-11T05:22:14.863Z,-1.60
2023-02-11T05:32:36.641Z,-1.45
2023-02-11T05:42:58.112Z,-1.25
2023-02-11T05:53:19.264Z,-1.13
2023-02-11T06:03:40.477Z,-1.05
2023-02-11T06:14:02.157Z,-0.94
2023-02-11T06:24:47.668Z,-0.82
2023-02-11T06:35:06.128Z,-0.55
2023-02-11T06:45:27.726Z,-0.34
2023-02-11T06:55:49.308Z,-0.12
2023-02-11T07:06:21.737Z,0.06
2023-02-11T07:16:43.082Z,-0.09
2023-02-11T07:27:04.684Z,-0.14
2023-02-11T07:37:26.179Z,-0.16
2023-02-11T07:47:47.690Z,-0.13
2023-02-11T07:58:08.689Z,0.03
2023-02-11T08:08:29.901Z,0.40
2023-02-11T08:18:52.036Z,0.58
2023-02-11T08:29:16.190Z,0.53
2023-02-11T08:39:37.626Z,0.92
2023-02-11T08:49:59.276Z,0.68
2023-02-11T09:00:21.023Z,0.91
2023-02-11T09:10:43.006Z,0.84
2023-02-11T09:21:07.394Z,0.74
2023-02-11T09:31:31.475Z,0.89
2023-02-11T09:42:24.356Z,1.00
2023-02-11T09:53:18.895Z,1.11
2023-02-11T10:04:07.615Z,0.95
2023-02-11T10:14:42.460Z,1.00
2023-02-11T10:25:21.633Z,1.10
2023-02-11T10:35:43.923Z,1.29
2023-02-11T10:46:06.115Z,1.51
2023-02-11T10:56:33.032Z,1.49
2023-02-11T13:54:38.648Z,1.83
2023-02-11T14:05:44.661Z,1.99
2023-02-11T14:16:11.596Z,1.97
2023-02-11T14:27:20.757Z,1.76
2023-02-11T14:38:35.108Z,1.46
2023-02-11T14:49:02.245Z,1.33
2023-02-11T14:59:23.953Z,1.22
2023-02-11T15:09:53.773Z,1.21
2023-02-11T15:20:28.719Z,1.15
2023-02-11T15:31:15.007Z,1.13
2023-02-11T15:41:38.413Z,1.08
2023-02-11T15:51:59.683Z,1.12
2023-02-11T16:02:26.668Z,1.10
2023-02-11T16:13:11.195Z,1.12
2023-02-11T16:23:36.858Z,1.08
2023-02-11T16:33:58.343Z,1.01
2023-02-11T16:44:19.768Z,0.98
2023-02-11T16:54:41.350Z,1.07
2023-02-11T17:05:07.974Z,1.11
2023-02-11T17:15:29.342Z,1.08
2023-02-11T17:25:57.249Z,1.11
2023-02-11T17:36:18.299Z,1.08
2023-02-11T17:46:40.043Z,1.11
2023-02-11T17:57:01.319Z,1.13
2023-02-11T18:07:22.503Z,1.11
2023-02-11T18:17:44.428Z,1.07
2023-02-11T18:28:05.648Z,1.08
2023-02-11T18:38:27.212Z,1.14
2023-02-11T18:48:50.043Z,1.11
2023-02-11T18:59:12.431Z,1.16
2023-02-11T19:09:33.425Z,1.08
2023-02-11T19:19:54.795Z,1.03
2023-02-11T19:30:16.300Z,0.94
2023-02-11T19:40:37.454Z,0.75
2023-02-11T19:50:59.181Z,0.74
2023-02-11T20:01:23.028Z,0.76
2023-02-11T20:11:44.234Z,0.77
2023-02-11T20:22:05.699Z,0.75
2023-02-11T20:32:27.338Z,0.65
2023-02-11T20:42:48.881Z,0.59
2023-02-11T20:53:10.936Z,0.52
2023-02-11T21:03:32.314Z,0.49
2023-02-11T21:13:54.210Z,0.41
2023-02-11T21:24:16.206Z,0.39
2023-02-11T21:34:37.241Z,0.39
2023-02-11T21:44:58.303Z,0.32
2023-02-11T21:55:19.790Z,0.27
2023-02-11T22:05:41.663Z,0.33
2023-02-11T22:16:07.868Z,0.31
2023-02-11T22:26:29.508Z,0.35
2023-02-11T22:36:50.471Z,0.37
2023-02-11T22:47:11.491Z,0.39
2023-02-11T22:57:33.063Z,0.37
2023-02-11T23:07:54.024Z,0.31
2023-02-11T23:18:15.616Z,0.35
2023-02-11T23:28:37.160Z,0.39
2023-02-11T23:38:58.734Z,0.39
2023-02-11T23:49:20.511Z,0.41
2023-02-11T23:59:43.215Z,0.41
